Islay Airport

About
Name: Islay Airport
Identifier:  ILY/EGPI
Serves:  Islay
Operator:  Highlands and Islands Airports Limited
Public/Private:  Public
Local Time:  23. Aug 11:03 BST
Description: Islay Airport is located 4.5 nautical miles north northwest of Port Ellen on the island of Islay in Argyll and Bute, off the west coast of Scotland. It is a small rural airport owned and maintained by Highlands and Islands Airports Limited. Today the airport is used for scheduled services to the Scottish mainland, and for air ambulances.
Source: Wikipedia
Location
Runways
Identifier Length (m/ft) Surface
13/31 1,545/5,069 Asphalt
08/26 635/2,083 Asphalt
Flights per Day
4 flights
Distance: 134km (83mi)
Punctuality
96% (0 flights per day delayed)
Delay Average: 19 minutes
Current Weather
  13kt (24km/h / 14mph) from 130°
  9km (6 mi.)
 METAR EGPI 230920Z AUTO 13013KT 070V130 9999 OVC025/// 16/13 Q1018

Current Flights

Departures
Number Departure To Airline
Arrivals
Number Arrival From Airline
 LM421 08:45 +24  Glasgow  Loganair
 LM427 17:55  Glasgow  Loganair

Current Delays

Departures
N/A
Arrivals
N/A

Destinations

Top Destinations
Airport Flights
per week
Seats
per week
  Glasgow (GLA) 26 897 3 128
  Edinburgh (EDI) 11 376 1 53
  Prestwick (PIK) 0 - 0 0

Airlines & Planes

Top Airlines
Airline Flights
per Day
Seats
per Day
  Loganair 5 181
Top Plane Types
Model Flights Seats
Saab 340 5.4/day 181/day 181.96666666666667